createdAt,value
2023-05-12T00:00:15.154Z,13.96
2023-05-12T00:03:04.658Z,13.92
2023-05-12T00:05:32.432Z,13.90
2023-05-12T00:07:59.847Z,13.89
2023-05-12T00:10:28.662Z,13.88
2023-05-12T00:12:56.069Z,13.75
2023-05-12T00:15:23.685Z,13.83
2023-05-12T00:17:52.482Z,13.85
2023-05-12T00:20:20.452Z,13.81
2023-05-12T00:22:47.986Z,13.83
2023-05-12T00:25:15.536Z,13.82
2023-05-12T00:27:42.798Z,13.77
2023-05-12T00:30:11.728Z,13.71
2023-05-12T00:32:47.863Z,13.63
2023-05-12T00:35:17.167Z,13.61
2023-05-12T00:37:45.630Z,13.55
2023-05-12T00:40:13.257Z,13.54
2023-05-12T00:42:40.715Z,13.45
2023-05-12T00:45:09.305Z,13.43
2023-05-12T00:47:37.454Z,13.35
2023-05-12T00:50:06.939Z,13.33
2023-05-12T00:52:34.725Z,13.24
2023-05-12T00:55:03.647Z,13.23
2023-05-12T00:57:31.528Z,13.21
2023-05-12T00:59:59.159Z,13.15
2023-05-12T01:02:26.563Z,13.04
2023-05-12T01:04:54.273Z,12.95
2023-05-12T01:07:26.521Z,12.94
2023-05-12T01:09:58.190Z,12.85
2023-05-12T01:12:28.149Z,12.77
2023-05-12T01:14:57.529Z,12.71
2023-05-12T01:17:34.499Z,12.64
2023-05-12T01:20:08.438Z,12.69
2023-05-12T01:22:38.219Z,12.62
2023-05-12T01:25:12.153Z,12.59
2023-05-12T01:27:42.107Z,12.58
2023-05-12T01:30:13.491Z,12.42
2023-05-12T01:32:42.166Z,12.27
2023-05-12T01:35:10.050Z,12.19
2023-05-12T01:37:37.610Z,12.17
2023-05-12T01:40:05.922Z,12.12
2023-05-12T01:42:33.380Z,11.96
2023-05-12T01:45:00.955Z,11.92
2023-05-12T01:47:28.312Z,11.89
2023-05-12T01:49:55.948Z,11.88
2023-05-12T01:52:23.290Z,11.86
2023-05-12T01:54:51.536Z,11.83
2023-05-12T01:57:19.121Z,11.76
2023-05-12T01:59:46.681Z,11.82
2023-05-12T02:02:14.116Z,11.78
2023-05-12T02:04:41.939Z,11.75
2023-05-12T02:07:09.351Z,11.69
2023-05-12T02:09:36.992Z,11.69
2023-05-12T02:12:05.008Z,11.58
2023-05-12T02:14:32.650Z,11.51
2023-05-12T02:16:59.939Z,11.54
2023-05-12T02:19:29.861Z,11.51
2023-05-12T02:21:58.249Z,11.52
2023-05-12T02:24:25.913Z,11.50
2023-05-12T02:26:53.144Z,11.50
2023-05-12T02:29:20.741Z,11.42
2023-05-12T02:31:48.032Z,11.47
2023-05-12T02:34:15.704Z,11.49
2023-05-12T02:36:43.026Z,11.40
2023-05-12T02:39:10.687Z,11.38
2023-05-12T02:41:37.984Z,11.35
2023-05-12T02:44:05.679Z,11.26
2023-05-12T02:46:32.974Z,11.18
2023-05-12T02:49:00.517Z,11.22
2023-05-12T02:51:27.973Z,11.21
2023-05-12T02:53:55.492Z,11.17
2023-05-12T02:56:23.008Z,11.16
2023-05-12T02:58:50.767Z,11.12
2023-05-12T03:01:18.096Z,11.05
2023-05-12T03:03:46.363Z,11.01
2023-05-12T03:06:14.111Z,11.01
2023-05-12T03:08:41.831Z,11.01
2023-05-12T03:11:09.360Z,11.01
2023-05-12T03:13:37.016Z,11.00
2023-05-12T03:16:05.955Z,10.96
2023-05-12T03:18:33.583Z,10.95
2023-05-12T03:21:02.267Z,10.96
2023-05-12T03:23:29.962Z,10.86
2023-05-12T03:25:57.289Z,10.90
2023-05-12T03:28:24.971Z,10.85
2023-05-12T03:30:52.260Z,10.80
2023-05-12T03:33:19.862Z,10.85
2023-05-12T03:35:47.424Z,10.86
2023-05-12T03:38:15.029Z,10.83
2023-05-12T03:40:42.453Z,10.84
2023-05-12T03:43:10.004Z,10.83
2023-05-12T03:45:37.315Z,10.76
2023-05-12T03:48:05.287Z,10.79
2023-05-12T03:50:32.587Z,10.81
2023-05-12T03:53:03.575Z,10.84
2023-05-12T03:55:30.810Z,10.84
2023-05-12T03:57:58.373Z,10.95
2023-05-12T04:00:25.686Z,10.95
2023-05-12T04:02:53.295Z,11.08
2023-05-12T04:05:20.845Z,11.13
2023-05-12T04:07:48.540Z,11.19
2023-05-12T04:10:15.962Z,11.29
2023-05-12T04:12:43.584Z,11.26
2023-05-12T04:15:11.677Z,11.37
2023-05-12T04:17:39.298Z,11.36
2023-05-12T04:20:08.169Z,11.40
2023-05-12T04:22:38.037Z,11.42
2023-05-12T04:25:05.940Z,11.48
2023-05-12T04:27:33.537Z,11.55
2023-05-12T04:30:00.868Z,11.60
2023-05-12T04:32:29.081Z,11.63
2023-05-12T04:37:24.416Z,11.71
2023-05-12T04:39:51.749Z,11.71
2023-05-12T04:42:19.402Z,11.79
2023-05-12T04:44:46.831Z,11.92
2023-05-12T04:47:14.459Z,11.96
2023-05-12T04:49:41.716Z,12.02
2023-05-12T04:52:09.357Z,12.03
2023-05-12T04:54:36.747Z,12.08
2023-05-12T04:57:04.846Z,12.25
2023-05-12T04:59:32.702Z,12.26
2023-05-12T05:02:00.484Z,12.38
2023-05-12T05:04:28.105Z,12.28
2023-05-12T05:06:55.806Z,12.53
2023-05-12T05:09:23.142Z,12.55
2023-05-12T05:14:41.545Z,12.70
2023-05-12T05:17:11.398Z,12.74
2023-05-12T05:19:53.115Z,12.70
2023-05-12T05:22:25.709Z,12.78
2023-05-12T05:24:53.090Z,12.75
2023-05-12T05:27:20.901Z,12.87
2023-05-12T05:29:49.486Z,12.94
2023-05-12T05:32:17.455Z,13.03
2023-05-12T05:34:44.822Z,13.19
2023-05-12T05:37:13.025Z,13.35
2023-05-12T05:39:40.510Z,13.38
2023-05-12T05:42:08.067Z,13.37
2023-05-12T05:44:36.025Z,13.34
2023-05-12T05:47:04.160Z,13.50
2023-05-12T05:49:31.568Z,13.44
2023-05-12T05:51:59.183Z,13.59
2023-05-12T05:54:26.924Z,13.67
2023-05-12T05:56:54.641Z,13.65
2023-05-12T05:59:29.305Z,13.73
2023-05-12T06:01:56.953Z,13.90
2023-05-12T06:04:24.396Z,13.90
2023-05-12T06:06:52.097Z,13.97
2023-05-12T06:09:20.047Z,14.03
2023-05-12T06:11:47.658Z,14.31
2023-05-12T06:14:15.002Z,14.37
2023-05-12T06:16:42.630Z,14.44
2023-05-12T06:19:10.054Z,14.56
2023-05-12T06:21:37.920Z,14.68
2023-05-12T06:24:05.398Z,14.75
2023-05-12T06:26:34.049Z,14.89
2023-05-12T06:29:02.270Z,14.90
2023-05-12T06:31:30.155Z,15.07
2023-05-12T06:33:57.374Z,15.16
2023-05-12T06:36:25.020Z,15.27
2023-05-12T06:38:52.396Z,15.41
2023-05-12T06:41:20.039Z,15.55
2023-05-12T06:43:47.341Z,15.49
2023-05-12T06:46:15.390Z,15.79
2023-05-12T06:48:42.742Z,15.91
2023-05-12T06:51:10.427Z,16.05
2023-05-12T06:53:38.202Z,16.14
2023-05-12T06:56:06.273Z,16.25
2023-05-12T06:58:33.881Z,16.39
2023-05-12T07:01:01.446Z,16.50
2023-05-12T07:03:32.915Z,16.70
2023-05-12T07:06:01.043Z,16.69
2023-05-12T07:08:28.450Z,16.93
2023-05-12T07:10:56.575Z,17.11
2023-05-12T07:13:23.862Z,17.04
2023-05-12T07:15:51.541Z,17.09
2023-05-12T07:18:18.828Z,17.27
2023-05-12T07:20:46.748Z,17.40
2023-05-12T07:23:14.113Z,17.49
2023-05-12T07:25:41.667Z,17.70
2023-05-12T07:28:09.080Z,17.86
2023-05-12T07:30:37.723Z,17.84
2023-05-12T07:33:06.605Z,17.88
2023-05-12T07:35:34.425Z,18.04
2023-05-12T07:38:03.368Z,18.04
2023-05-12T07:40:30.929Z,18.23
2023-05-12T07:42:58.278Z,18.18
2023-05-12T07:45:25.916Z,18.50
2023-05-12T07:47:53.362Z,18.65
2023-05-12T07:50:21.476Z,18.54
2023-05-12T07:52:53.783Z,18.75
2023-05-12T07:55:23.013Z,18.81
2023-05-12T07:57:51.062Z,18.89
2023-05-12T08:00:19.528Z,19.13
2023-05-12T08:02:47.511Z,19.34
2023-05-12T08:05:15.766Z,19.35
2023-05-12T08:07:44.021Z,19.46
2023-05-12T08:10:16.046Z,19.58
2023-05-12T08:12:43.917Z,19.70
2023-05-12T08:15:11.632Z,19.91
2023-05-12T08:17:38.993Z,19.95
2023-05-12T08:20:07.486Z,19.97
2023-05-12T08:22:34.750Z,20.10
2023-05-12T08:25:02.434Z,20.37
2023-05-12T08:27:29.740Z,20.32
2023-05-12T08:29:57.429Z,20.62
2023-05-12T08:32:24.933Z,20.42
2023-05-12T08:34:52.777Z,20.32
2023-05-12T08:37:20.991Z,20.56
2023-05-12T08:39:48.560Z,20.67
2023-05-12T08:42:40.625Z,20.60
2023-05-12T08:45:10.596Z,20.88
2023-05-12T08:47:38.695Z,21.08
2023-05-12T08:50:10.190Z,21.06
2023-05-12T08:52:37.492Z,21.01
2023-05-12T08:55:05.802Z,21.22
2023-05-12T08:57:34.131Z,21.09
2023-05-12T09:00:04.869Z,21.19
2023-05-12T09:02:41.309Z,21.28
2023-05-12T09:05:16.318Z,21.40
2023-05-12T09:07:48.041Z,21.34
2023-05-12T09:10:32.946Z,21.33
2023-05-12T09:13:26.957Z,21.50
2023-05-12T09:15:59.013Z,21.58
2023-05-12T09:18:26.402Z,21.64
2023-05-12T09:20:53.926Z,21.99
2023-05-12T09:23:24.733Z,22.44
2023-05-12T09:26:01.804Z,23.78
2023-05-12T09:28:39.177Z,29.14
2023-05-12T09:31:23.132Z,36.31
2023-05-12T09:33:52.284Z,39.98
2023-05-12T09:36:22.527Z,44.22
2023-05-12T09:39:04.696Z,46.16
2023-05-12T09:41:39.985Z,49.58
2023-05-12T09:44:09.786Z,51.79
2023-05-12T09:46:40.078Z,49.24
2023-05-12T09:49:07.988Z,49.76
2023-05-12T09:51:35.552Z,52.87
2023-05-12T09:54:04.626Z,52.68
2023-05-12T09:56:38.577Z,51.15
2023-05-12T09:59:06.380Z,52.06
2023-05-12T10:01:34.993Z,52.41
2023-05-12T10:04:07.717Z,51.74
2023-05-12T10:06:45.681Z,52.83
2023-05-12T10:09:31.627Z,53.03
2023-05-12T10:12:01.000Z,54.66
2023-05-12T10:14:29.020Z,51.54
2023-05-12T10:16:59.444Z,50.92
2023-05-12T10:19:29.685Z,57.91
2023-05-12T10:21:58.324Z,59.06
2023-05-12T10:24:27.598Z,60.55
2023-05-12T10:26:56.790Z,58.71
2023-05-12T10:29:30.477Z,58.76
2023-05-12T10:32:01.147Z,57.84
2023-05-12T10:34:36.832Z,57.44
2023-05-12T10:37:11.404Z,57.33
2023-05-12T10:39:49.732Z,45.36
2023-05-12T10:42:25.596Z,45.31
2023-05-12T10:44:55.466Z,39.47
2023-05-12T10:47:37.199Z,37.42
2023-05-12T10:50:05.764Z,35.96
2023-05-12T10:52:33.731Z,34.32
2023-05-12T10:55:04.197Z,33.63
2023-05-12T10:57:33.514Z,33.06
2023-05-12T11:00:03.557Z,32.93
2023-05-12T11:02:36.323Z,32.79
2023-05-12T11:05:14.360Z,31.51
2023-05-12T11:07:50.745Z,30.64
2023-05-12T11:10:19.635Z,30.15
2023-05-12T11:12:49.990Z,29.10
2023-05-12T11:15:18.225Z,28.90
2023-05-12T11:17:46.824Z,28.63
2023-05-12T11:20:26.471Z,28.51
2023-05-12T11:22:55.235Z,28.16
2023-05-12T11:25:22.745Z,28.84
2023-05-12T11:27:50.948Z,28.33
2023-05-12T11:30:18.364Z,28.11
2023-05-12T11:32:46.208Z,27.85
2023-05-12T11:35:23.408Z,27.64
2023-05-12T11:37:51.121Z,27.17
2023-05-12T11:40:23.324Z,26.77
2023-05-12T11:42:52.986Z,27.38
2023-05-12T11:45:30.755Z,27.25
2023-05-12T11:48:10.040Z,27.52
2023-05-12T11:50:43.735Z,27.38
2023-05-12T11:53:19.379Z,26.84
2023-05-12T11:55:55.928Z,26.73
2023-05-12T11:58:30.700Z,26.86
2023-05-12T12:01:11.199Z,26.26
2023-05-12T12:03:49.931Z,26.12
2023-05-12T12:06:18.270Z,25.47
2023-05-12T12:08:54.645Z,25.40
2023-05-12T12:11:24.278Z,25.56
2023-05-12T12:13:57.169Z,25.87
2023-05-12T12:16:31.956Z,26.31
2023-05-12T12:18:59.729Z,25.91
2023-05-12T12:21:27.138Z,26.38
2023-05-12T12:23:54.778Z,26.55
2023-05-12T12:26:23.821Z,26.30
2023-05-12T12:28:51.698Z,25.36
2023-05-12T12:31:19.127Z,25.26
2023-05-12T12:33:46.679Z,25.30
2023-05-12T12:36:14.018Z,25.75
2023-05-12T12:38:41.779Z,25.30
2023-05-12T12:41:09.145Z,25.37
2023-05-12T12:43:36.723Z,24.68
2023-05-12T12:46:04.047Z,23.94
2023-05-12T12:48:32.278Z,24.35
2023-05-12T12:51:01.322Z,24.45
2023-05-12T12:53:28.992Z,24.02
2023-05-12T12:55:56.624Z,24.09
2023-05-12T12:58:25.260Z,24.35
2023-05-12T13:00:52.705Z,24.32
2023-05-12T13:03:23.163Z,24.35
2023-05-12T13:05:50.974Z,24.68
2023-05-12T13:08:18.519Z,24.85
2023-05-12T13:10:45.982Z,24.77
2023-05-12T13:13:13.665Z,24.57
2023-05-12T13:15:42.182Z,24.08
2023-05-12T13:18:10.113Z,24.16
2023-05-12T13:20:37.521Z,24.04
2023-05-12T13:23:05.403Z,24.34
2023-05-12T13:25:32.656Z,24.32
2023-05-12T13:28:00.215Z,24.21
2023-05-12T13:30:27.979Z,24.04
2023-05-12T13:32:55.731Z,24.29
2023-05-12T13:35:23.333Z,24.62
2023-05-12T13:37:51.080Z,24.44
2023-05-12T13:40:18.587Z,24.31
2023-05-12T13:42:46.567Z,24.53
2023-05-12T13:45:13.882Z,25.27
2023-05-12T13:47:42.341Z,25.50
2023-05-12T13:50:09.916Z,25.37
2023-05-12T13:52:37.742Z,25.65
2023-05-12T13:55:05.559Z,25.46
2023-05-12T13:57:33.140Z,25.05
2023-05-12T14:00:00.907Z,25.59
2023-05-12T14:02:28.527Z,25.54
2023-05-12T14:04:56.670Z,25.08
2023-05-12T14:07:25.475Z,24.78
2023-05-12T14:09:52.703Z,24.78
2023-05-12T14:12:20.342Z,24.17
2023-05-12T14:14:50.091Z,24.18
2023-05-12T14:17:18.791Z,24.10
2023-05-12T14:19:47.657Z,24.02
2023-05-12T14:22:25.541Z,23.85
2023-05-12T14:24:55.604Z,24.21
2023-05-12T14:27:24.208Z,23.55
2023-05-12T14:29:51.562Z,23.63
2023-05-12T14:32:19.081Z,23.54
2023-05-12T14:34:46.352Z,23.26
2023-05-12T14:37:13.963Z,23.23
2023-05-12T14:39:41.256Z,23.25
2023-05-12T14:42:09.365Z,23.26
2023-05-12T14:44:36.684Z,23.37
2023-05-12T14:47:05.205Z,23.28
2023-05-12T14:49:32.829Z,23.29
2023-05-12T14:52:00.384Z,23.29
2023-05-12T14:54:28.695Z,23.14
2023-05-12T14:56:56.717Z,23.47
2023-05-12T14:59:24.087Z,23.52
2023-05-12T15:01:51.710Z,23.40
2023-05-12T15:04:20.268Z,23.39
2023-05-12T15:06:47.946Z,23.21
2023-05-12T15:09:15.283Z,22.85
2023-05-12T15:11:45.481Z,22.59
2023-05-12T15:14:13.031Z,22.81
2023-05-12T15:16:41.049Z,22.71
2023-05-12T15:19:08.845Z,22.48
2023-05-12T15:21:36.862Z,22.57
2023-05-12T15:24:04.582Z,22.48
2023-05-12T15:26:34.220Z,22.25
2023-05-12T15:29:02.942Z,22.34
2023-05-12T15:31:31.079Z,22.21
2023-05-12T15:33:58.434Z,22.48
2023-05-12T15:36:26.213Z,22.48
2023-05-12T15:38:53.776Z,22.49
2023-05-12T15:41:22.286Z,22.55
2023-05-12T15:43:49.653Z,22.07
2023-05-12T15:46:17.571Z,22.19
2023-05-12T15:48:51.179Z,22.33
2023-05-12T15:51:18.889Z,22.43
2023-05-12T15:53:46.327Z,22.47
2023-05-12T15:56:16.277Z,22.57
2023-05-12T15:58:45.013Z,22.75
2023-05-12T16:01:13.287Z,22.64
2023-05-12T16:03:40.834Z,22.48
2023-05-12T16:06:09.015Z,22.08
2023-05-12T16:08:36.523Z,22.32
2023-05-12T16:11:06.328Z,21.99
2023-05-12T16:13:34.097Z,22.25
2023-05-12T16:16:02.712Z,22.28
2023-05-12T16:18:31.265Z,22.18
2023-05-12T16:20:59.802Z,22.02
2023-05-12T16:23:27.092Z,21.80
2023-05-12T16:25:54.814Z,21.85
2023-05-12T16:28:22.318Z,21.88
2023-05-12T16:30:49.872Z,21.83
2023-05-12T16:33:17.234Z,21.66
2023-05-12T16:35:44.887Z,21.60
2023-05-12T16:38:13.487Z,21.51
2023-05-12T16:40:41.196Z,21.60
2023-05-12T16:43:08.588Z,21.42
2023-05-12T16:45:36.210Z,21.38
2023-05-12T16:48:03.963Z,21.56
2023-05-12T16:50:32.418Z,21.60
2023-05-12T16:52:59.812Z,21.34
2023-05-12T16:55:27.599Z,21.33
2023-05-12T16:57:54.930Z,21.02
2023-05-12T17:00:22.620Z,21.05
2023-05-12T17:02:50.040Z,20.99
2023-05-12T17:05:17.737Z,20.97
2023-05-12T17:07:52.618Z,20.74
2023-05-12T17:10:20.222Z,20.90
2023-05-12T17:12:47.742Z,20.74
2023-05-12T17:15:15.644Z,20.86
2023-05-12T17:17:43.008Z,20.71
2023-05-12T17:20:11.801Z,20.51
2023-05-12T17:22:42.733Z,20.60
2023-05-12T17:25:10.897Z,20.35
2023-05-12T17:27:38.248Z,20.46
2023-05-12T17:30:06.977Z,20.35
2023-05-12T17:32:36.509Z,20.22
2023-05-12T17:35:04.492Z,20.15
2023-05-12T17:37:32.018Z,20.02
2023-05-12T17:40:01.088Z,19.83
2023-05-12T17:42:31.339Z,19.80
2023-05-12T17:44:59.164Z,19.85
2023-05-12T17:47:27.775Z,19.81
2023-05-12T17:50:02.607Z,19.67
2023-05-12T17:52:31.263Z,19.51
2023-05-12T17:55:00.067Z,19.33
2023-05-12T17:57:27.419Z,19.22
2023-05-12T17:59:55.078Z,19.17
2023-05-12T18:02:22.678Z,19.05
2023-05-12T18:04:50.691Z,18.89
2023-05-12T18:07:18.157Z,18.94
2023-05-12T18:09:48.182Z,18.80
2023-05-12T18:12:17.721Z,18.78
2023-05-12T18:14:45.463Z,18.63
2023-05-12T18:17:12.933Z,18.59
2023-05-12T18:19:40.717Z,18.61
2023-05-12T18:22:08.131Z,18.44
2023-05-12T18:24:35.876Z,18.30
2023-05-12T18:27:06.319Z,18.27
2023-05-12T18:29:34.095Z,18.24
2023-05-12T18:32:01.562Z,18.04
2023-05-12T18:34:30.241Z,17.92
2023-05-12T18:36:57.486Z,17.82
2023-05-12T18:39:25.182Z,17.75
2023-05-12T18:41:54.209Z,17.66
2023-05-12T18:44:21.911Z,17.55
2023-05-12T18:46:49.243Z,17.44
2023-05-12T18:49:16.883Z,17.39
2023-05-12T18:51:44.182Z,17.39
2023-05-12T18:54:11.970Z,17.30
2023-05-12T18:56:39.355Z,17.25
2023-05-12T18:59:07.067Z,17.21
2023-05-12T19:01:34.544Z,17.17
2023-05-12T19:04:02.438Z,17.10
2023-05-12T19:06:30.175Z,17.02
2023-05-12T19:08:57.737Z,16.95
2023-05-12T19:11:25.417Z,16.87
2023-05-12T19:13:53.081Z,16.91
2023-05-12T19:16:21.593Z,17.01
2023-05-12T19:18:49.781Z,16.98
2023-05-12T19:21:18.309Z,16.99
2023-05-12T19:23:45.914Z,16.94
2023-05-12T19:26:13.231Z,17.01
2023-05-12T19:28:41.002Z,17.13
2023-05-12T19:31:08.422Z,17.08
2023-05-12T19:33:36.473Z,17.05
2023-05-12T19:36:03.976Z,16.98
2023-05-12T19:38:31.531Z,16.92
2023-05-12T19:40:59.420Z,16.83
2023-05-12T19:43:26.977Z,16.80
2023-05-12T19:45:54.815Z,16.74
2023-05-12T19:48:22.419Z,16.65
2023-05-12T19:50:49.764Z,16.61
2023-05-12T19:53:17.449Z,16.50
2023-05-12T19:55:44.795Z,16.51
2023-05-12T19:58:12.411Z,16.46
2023-05-12T20:00:39.747Z,16.41
2023-05-12T20:03:07.546Z,16.40
2023-05-12T20:05:39.075Z,16.35
2023-05-12T20:08:06.829Z,16.23
2023-05-12T20:10:34.573Z,16.23
2023-05-12T20:13:05.136Z,16.21
2023-05-12T20:15:34.332Z,16.19
2023-05-12T20:18:01.949Z,16.16
2023-05-12T20:20:29.553Z,16.13
2023-05-12T20:22:57.472Z,16.13
2023-05-12T20:25:27.101Z,16.03
2023-05-12T20:27:55.669Z,16.06
2023-05-12T20:30:23.086Z,15.97
2023-05-12T20:32:51.185Z,15.96
2023-05-12T20:35:18.738Z,15.85
2023-05-12T20:37:46.578Z,15.84
2023-05-12T20:40:14.074Z,15.88
2023-05-12T20:42:41.799Z,15.87
2023-05-12T20:45:09.672Z,15.84
2023-05-12T20:47:37.776Z,15.83
2023-05-12T20:50:07.187Z,15.78
2023-05-12T20:52:38.750Z,15.76
2023-05-12T20:55:07.251Z,15.75
2023-05-12T20:57:35.023Z,15.70
2023-05-12T21:00:02.309Z,15.59
2023-05-12T21:02:29.974Z,15.66
2023-05-12T21:04:57.542Z,15.58
2023-05-12T21:07:25.180Z,15.51
2023-05-12T21:09:52.610Z,15.48
2023-05-12T21:12:20.470Z,15.52
2023-05-12T21:14:47.707Z,15.52
2023-05-12T21:17:17.411Z,15.55
2023-05-12T21:19:44.959Z,15.53
2023-05-12T21:22:13.054Z,15.51
2023-05-12T21:24:40.802Z,15.50
2023-05-12T21:27:08.472Z,15.45
2023-05-12T21:29:36.803Z,15.46
2023-05-12T21:32:04.805Z,15.49
2023-05-12T21:34:33.791Z,15.43
2023-05-12T21:37:01.857Z,15.43
2023-05-12T21:39:29.180Z,15.38
2023-05-12T21:41:56.741Z,15.43
2023-05-12T21:44:24.073Z,15.44
2023-05-12T21:46:51.686Z,15.48
2023-05-12T21:49:19.255Z,15.48
2023-05-12T21:51:46.939Z,15.39
2023-05-12T21:54:14.178Z,15.38
2023-05-12T21:56:43.134Z,15.44
2023-05-12T21:59:10.654Z,15.42
2023-05-12T22:01:38.673Z,15.52
2023-05-12T22:04:06.089Z,15.54
2023-05-12T22:06:34.029Z,15.52
2023-05-12T22:09:02.191Z,15.51
2023-05-12T22:11:29.781Z,15.52
2023-05-12T22:13:57.388Z,15.49
2023-05-12T22:16:38.253Z,15.38
2023-05-12T22:19:17.222Z,15.37
2023-05-12T22:21:44.862Z,15.34
2023-05-12T22:24:12.160Z,15.44
2023-05-12T22:26:39.677Z,15.45
2023-05-12T22:29:07.012Z,15.44
2023-05-12T22:31:34.647Z,15.39
2023-05-12T22:34:01.892Z,15.47
2023-05-12T22:36:30.232Z,15.55
2023-05-12T22:38:57.472Z,15.49
2023-05-12T22:41:25.358Z,15.51
2023-05-12T22:43:52.668Z,15.53
2023-05-12T22:46:20.375Z,15.49
2023-05-12T22:48:47.772Z,15.51
2023-05-12T22:51:15.818Z,15.49
2023-05-12T22:53:43.037Z,15.58
2023-05-12T22:56:12.564Z,15.54
2023-05-12T22:58:39.806Z,15.51
2023-05-12T23:01:07.487Z,15.47
2023-05-12T23:03:34.825Z,15.47
2023-05-12T23:06:02.517Z,15.42
2023-05-12T23:08:31.661Z,15.40
2023-05-12T23:11:00.834Z,15.43
2023-05-12T23:13:30.904Z,15.55
2023-05-12T23:15:58.435Z,15.44
2023-05-12T23:18:25.738Z,15.30
2023-05-12T23:20:54.722Z,15.35
2023-05-12T23:23:22.057Z,15.31
2023-05-12T23:25:50.089Z,15.24
2023-05-12T23:28:17.391Z,15.26
2023-05-12T23:30:44.896Z,15.19
2023-05-12T23:33:12.298Z,15.17
2023-05-12T23:35:39.862Z,15.16
2023-05-12T23:38:07.363Z,15.13
2023-05-12T23:40:39.145Z,15.07
2023-05-12T23:43:07.176Z,14.95
2023-05-12T23:45:35.288Z,14.85
2023-05-12T23:48:02.819Z,14.78
2023-05-12T23:50:30.459Z,14.78
2023-05-12T23:52:57.763Z,14.81
2023-05-12T23:55:25.416Z,14.86
2023-05-12T23:57:52.689Z,14.91
